sensor_id;sensor_type;location;lat;lon;timestamp;pressure;altitude;pressure_sealevel;temperature;humidity
48636;BME280;34429;52.332;5.614;2023-01-10T00:00:13;101031.53;;;6.37;100.00
48636;BME280;34429;52.332;5.614;2023-01-10T00:02:41;101037.34;;;6.43;100.00
48636;BME280;34429;52.332;5.614;2023-01-10T00:05:10;101038.94;;;6.46;100.00
48636;BME280;34429;52.332;5.614;2023-01-10T00:07:40;101044.81;;;6.38;100.00
48636;BME280;34429;52.332;5.614;2023-01-10T00:10:10;101046.06;;;6.32;100.00
48636;BME280;34429;52.332;5.614;2023-01-10T00:12:38;101044.28;;;6.33;100.00
48636;BME280;34429;52.332;5.614;2023-01-10T00:15:19;101051.31;;;6.34;100.00
48636;BME280;34429;52.332;5.614;2023-01-10T00:17:47;101059.22;;;6.36;100.00
48636;BME280;34429;52.332;5.614;2023-01-10T00:20:16;101070.56;;;6.26;100.00
48636;BME280;34429;52.332;5.614;2023-01-10T00:22:51;101081.03;;;6.29;100.00
48636;BME280;34429;52.332;5.614;2023-01-10T00:25:19;101096.97;;;6.31;100.00
48636;BME280;34429;52.332;5.614;2023-01-10T00:27:48;101102.31;;;6.31;100.00
48636;BME280;34429;52.332;5.614;2023-01-10T00:30:19;101104.09;;;6.45;100.00
48636;BME280;34429;52.332;5.614;2023-01-10T00:32:48;101105.16;;;6.68;100.00
48636;BME280;34429;52.332;5.614;2023-01-10T00:35:16;101106.34;;;6.64;100.00
48636;BME280;34429;52.332;5.614;2023-01-10T00:37:47;101110.00;;;6.63;100.00
48636;BME280;34429;52.332;5.614;2023-01-10T00:40:18;101106.78;;;6.71;100.00
48636;BME280;34429;52.332;5.614;2023-01-10T00:42:46;101112.03;;;6.72;100.00
48636;BME280;34429;52.332;5.614;2023-01-10T00:45:39;101111.06;;;6.73;100.00
48636;BME280;34429;52.332;5.614;2023-01-10T00:48:07;101115.25;;;6.64;100.00
48636;BME280;34429;52.332;5.614;2023-01-10T00:50:35;101113.22;;;6.81;100.00
48636;BME280;34429;52.332;5.614;2023-01-10T00:53:06;101116.63;;;6.83;100.00
48636;BME280;34429;52.332;5.614;2023-01-10T00:55:35;101116.84;;;6.80;100.00
48636;BME280;34429;52.332;5.614;2023-01-10T00:58:04;101113.34;;;6.92;100.00
48636;BME280;34429;52.332;5.614;2023-01-10T01:00:35;101118.91;;;6.89;100.00
48636;BME280;34429;52.332;5.614;2023-01-10T01:03:04;101120.59;;;6.90;100.00
48636;BME280;34429;52.332;5.614;2023-01-10T01:05:39;101125.75;;;6.80;100.00
48636;BME280;34429;52.332;5.614;2023-01-10T01:08:10;101132.50;;;6.86;100.00
48636;BME280;34429;52.332;5.614;2023-01-10T01:10:39;101132.91;;;6.80;100.00
48636;BME280;34429;52.332;5.614;2023-01-10T01:13:11;101143.81;;;6.77;100.00
48636;BME280;34429;52.332;5.614;2023-01-10T01:15:39;101129.91;;;6.84;100.00
48636;BME280;34429;52.332;5.614;2023-01-10T01:18:09;101141.06;;;6.91;100.00
48636;BME280;34429;52.332;5.614;2023-01-10T01:20:39;101146.97;;;6.96;100.00
48636;BME280;34429;52.332;5.614;2023-01-10T01:23:12;101143.97;;;7.01;100.00
48636;BME280;34429;52.332;5.614;2023-01-10T01:25:41;101137.53;;;6.91;100.00
48636;BME280;34429;52.332;5.614;2023-01-10T01:28:11;101147.25;;;6.79;100.00
48636;BME280;34429;52.332;5.614;2023-01-10T01:30:39;101151.41;;;6.70;100.00
48636;BME280;34429;52.332;5.614;2023-01-10T01:33:08;101160.31;;;6.83;100.00
48636;BME280;34429;52.332;5.614;2023-01-10T01:35:36;101163.69;;;6.73;100.00
48636;BME280;34429;52.332;5.614;2023-01-10T01:38:07;101171.66;;;6.87;100.00
48636;BME280;34429;52.332;5.614;2023-01-10T01:40:39;101175.63;;;6.94;100.00
48636;BME280;34429;52.332;5.614;2023-01-10T01:43:19;101167.28;;;6.99;100.00
48636;BME280;34429;52.332;5.614;2023-01-10T01:45:49;101170.81;;;6.87;100.00
48636;BME280;34429;52.332;5.614;2023-01-10T01:48:28;101179.47;;;6.77;100.00
48636;BME280;34429;52.332;5.614;2023-01-10T01:51:03;101180.63;;;6.73;100.00
48636;BME280;34429;52.332;5.614;2023-01-10T01:53:41;101190.81;;;6.81;100.00
48636;BME280;34429;52.332;5.614;2023-01-10T01:56:16;101193.63;;;6.92;100.00
48636;BME280;34429;52.332;5.614;2023-01-10T01:58:47;101206.78;;;6.95;100.00
48636;BME280;34429;52.332;5.614;2023-01-10T02:01:21;101200.38;;;6.98;100.00
48636;BME280;34429;52.332;5.614;2023-01-10T02:03:53;101200.78;;;6.92;100.00
48636;BME280;34429;52.332;5.614;2023-01-10T02:06:24;101204.28;;;6.79;100.00
48636;BME280;34429;52.332;5.614;2023-01-10T02:08:58;101204.63;;;6.88;100.00
48636;BME280;34429;52.332;5.614;2023-01-10T02:11:32;101202.91;;;6.87;100.00
48636;BME280;34429;52.332;5.614;2023-01-10T02:14:04;101210.94;;;6.87;100.00
48636;BME280;34429;52.332;5.614;2023-01-10T02:16:34;101198.41;;;6.87;100.00
48636;BME280;34429;52.332;5.614;2023-01-10T02:19:03;101193.50;;;6.94;100.00
48636;BME280;34429;52.332;5.614;2023-01-10T02:27:56;101207.41;;;6.86;100.00
48636;BME280;34429;52.332;5.614;2023-01-10T02:30:43;101210.63;;;6.91;100.00
48636;BME280;34429;52.332;5.614;2023-01-10T02:33:20;101215.66;;;6.96;100.00
48636;BME280;34429;52.332;5.614;2023-01-10T02:36:01;101223.47;;;6.86;100.00
48636;BME280;34429;52.332;5.614;2023-01-10T02:38:48;101217.91;;;6.89;100.00
48636;BME280;34429;52.332;5.614;2023-01-10T02:41:27;101224.97;;;6.90;100.00
48636;BME280;34429;52.332;5.614;2023-01-10T02:44:01;101223.06;;;6.92;100.00
48636;BME280;34429;52.332;5.614;2023-01-10T02:46:33;101228.81;;;6.86;100.00
48636;BME280;34429;52.332;5.614;2023-01-10T02:49:05;101232.88;;;6.92;100.00
48636;BME280;34429;52.332;5.614;2023-01-10T02:51:33;101226.25;;;6.97;100.00
48636;BME280;34429;52.332;5.614;2023-01-10T02:54:04;101225.53;;;6.95;100.00
48636;BME280;34429;52.332;5.614;2023-01-10T02:56:52;101232.03;;;6.91;100.00
48636;BME280;34429;52.332;5.614;2023-01-10T02:59:47;101227.78;;;7.01;100.00
48636;BME280;34429;52.332;5.614;2023-01-10T03:02:29;101232.03;;;6.91;100.00
48636;BME280;34429;52.332;5.614;2023-01-10T03:05:10;101235.28;;;6.96;100.00
48636;BME280;34429;52.332;5.614;2023-01-10T03:07:48;101239.31;;;7.02;100.00
48636;BME280;34429;52.332;5.614;2023-01-10T03:10:22;101244.88;;;6.99;100.00
48636;BME280;34429;52.332;5.614;2023-01-10T03:12:55;101247.25;;;7.04;100.00
48636;BME280;34429;52.332;5.614;2023-01-10T03:15:28;101243.63;;;7.05;100.00
48636;BME280;34429;52.332;5.614;2023-01-10T03:18:01;101249.94;;;7.04;100.00
48636;BME280;34429;52.332;5.614;2023-01-10T03:20:36;101255.50;;;7.00;100.00
48636;BME280;34429;52.332;5.614;2023-01-10T03:23:06;101257.13;;;7.03;100.00
48636;BME280;34429;52.332;5.614;2023-01-10T03:25:38;101268.03;;;7.00;100.00
48636;BME280;34429;52.332;5.614;2023-01-10T03:28:10;101264.41;;;7.01;100.00
48636;BME280;34429;52.332;5.614;2023-01-10T03:30:43;101282.88;;;7.18;100.00
48636;BME280;34429;52.332;5.614;2023-01-10T03:33:15;101285.81;;;7.14;100.00
48636;BME280;34429;52.332;5.614;2023-01-10T03:35:55;101285.06;;;7.12;100.00
48636;BME280;34429;52.332;5.614;2023-01-10T03:38:37;101282.81;;;7.06;100.00
48636;BME280;34429;52.332;5.614;2023-01-10T03:41:13;101290.53;;;7.10;100.00
48636;BME280;34429;52.332;5.614;2023-01-10T03:43:45;101289.69;;;7.10;100.00
48636;BME280;34429;52.332;5.614;2023-01-10T03:46:35;101294.41;;;7.19;100.00
48636;BME280;34429;52.332;5.614;2023-01-10T03:49:05;101301.56;;;7.06;100.00
48636;BME280;34429;52.332;5.614;2023-01-10T03:51:39;101303.06;;;7.10;100.00
48636;BME280;34429;52.332;5.614;2023-01-10T03:54:08;101322.69;;;7.23;100.00
48636;BME280;34429;52.332;5.614;2023-01-10T03:56:43;101308.97;;;7.15;100.00
48636;BME280;34429;52.332;5.614;2023-01-10T03:59:12;101311.84;;;7.12;100.00
48636;BME280;34429;52.332;5.614;2023-01-10T04:01:40;101315.38;;;7.12;100.00
48636;BME280;34429;52.332;5.614;2023-01-10T04:04:09;101323.28;;;7.01;100.00
48636;BME280;34429;52.332;5.614;2023-01-10T04:06:40;101317.94;;;7.14;100.00
48636;BME280;34429;52.332;5.614;2023-01-10T04:09:09;101322.44;;;7.13;100.00
48636;BME280;34429;52.332;5.614;2023-01-10T04:11:37;101318.50;;;7.19;100.00
48636;BME280;34429;52.332;5.614;2023-01-10T04:14:06;101321.72;;;7.24;100.00
48636;BME280;34429;52.332;5.614;2023-01-10T04:16:34;101326.88;;;7.27;100.00
48636;BME280;34429;52.332;5.614;2023-01-10T04:19:02;101339.34;;;7.14;100.00
48636;BME280;34429;52.332;5.614;2023-01-10T04:21:31;101339.34;;;7.14;100.00
48636;BME280;34429;52.332;5.614;2023-01-10T04:24:02;101351.16;;;7.24;100.00
48636;BME280;34429;52.332;5.614;2023-01-10T04:26:30;101347.97;;;7.19;100.00
48636;BME280;34429;52.332;5.614;2023-01-10T04:28:59;101358.00;;;7.15;100.00
48636;BME280;34429;52.332;5.614;2023-01-10T04:31:27;101361.09;;;7.09;100.00
48636;BME280;34429;52.332;5.614;2023-01-10T04:33:55;101355.31;;;7.15;100.00
48636;BME280;34429;52.332;5.614;2023-01-10T04:36:24;101355.25;;;7.17;100.00
48636;BME280;34429;52.332;5.614;2023-01-10T04:38:52;101359.81;;;7.15;100.00
48636;BME280;34429;52.332;5.614;2023-01-10T04:41:23;101364.84;;;7.07;100.00
48636;BME280;34429;52.332;5.614;2023-01-10T04:43:52;101362.91;;;7.09;100.00
48636;BME280;34429;52.332;5.614;2023-01-10T04:46:20;101370.00;;;7.10;100.00
48636;BME280;34429;52.332;5.614;2023-01-10T04:48:48;101379.38;;;7.03;100.00
48636;BME280;34429;52.332;5.614;2023-01-10T04:51:17;101375.88;;;7.15;100.00
48636;BME280;34429;52.332;5.614;2023-01-10T04:53:45;101377.34;;;7.06;100.00
48636;BME280;34429;52.332;5.614;2023-01-10T04:56:17;101383.91;;;7.15;100.00
48636;BME280;34429;52.332;5.614;2023-01-10T04:58:49;101387.38;;;7.17;100.00
48636;BME280;34429;52.332;5.614;2023-01-10T05:01:20;101388.41;;;7.14;100.00
48636;BME280;34429;52.332;5.614;2023-01-10T05:03:49;101392.31;;;7.23;100.00
48636;BME280;34429;52.332;5.614;2023-01-10T05:06:18;101392.09;;;7.26;100.00
48636;BME280;34429;52.332;5.614;2023-01-10T05:08:47;101399.84;;;7.31;100.00
48636;BME280;34429;52.332;5.614;2023-01-10T05:11:15;101391.69;;;7.32;100.00
48636;BME280;34429;52.332;5.614;2023-01-10T05:13:44;101386.81;;;7.39;100.00
48636;BME280;34429;52.332;5.614;2023-01-10T05:16:15;101389.75;;;7.34;100.00
48636;BME280;34429;52.332;5.614;2023-01-10T05:18:43;101408.69;;;7.18;100.00
48636;BME280;34429;52.332;5.614;2023-01-10T05:21:12;101406.44;;;7.25;100.00
48636;BME280;34429;52.332;5.614;2023-01-10T05:23:41;101396.09;;;7.33;100.00
48636;BME280;34429;52.332;5.614;2023-01-10T05:26:11;101402.34;;;7.19;100.00
48636;BME280;34429;52.332;5.614;2023-01-10T05:28:40;101404.72;;;7.24;100.00
48636;BME280;34429;52.332;5.614;2023-01-10T05:31:11;101405.34;;;7.15;100.00
48636;BME280;34429;52.332;5.614;2023-01-10T05:33:45;101415.00;;;7.17;100.00
48636;BME280;34429;52.332;5.614;2023-01-10T05:36:14;101422.00;;;7.06;100.00
48636;BME280;34429;52.332;5.614;2023-01-10T05:38:43;101427.44;;;7.18;100.00
48636;BME280;34429;52.332;5.614;2023-01-10T05:41:12;101429.78;;;7.23;100.00
48636;BME280;34429;52.332;5.614;2023-01-10T05:43:40;101434.78;;;7.15;100.00
48636;BME280;34429;52.332;5.614;2023-01-10T05:46:09;101426.75;;;7.15;100.00
48636;BME280;34429;52.332;5.614;2023-01-10T05:48:37;101417.50;;;7.06;100.00
48636;BME280;34429;52.332;5.614;2023-01-10T05:51:08;101428.88;;;7.10;100.00
48636;BME280;34429;52.332;5.614;2023-01-10T05:53:36;101438.09;;;6.91;100.00
48636;BME280;34429;52.332;5.614;2023-01-10T05:56:06;101452.81;;;6.84;100.00
48636;BME280;34429;52.332;5.614;2023-01-10T05:58:34;101458.84;;;6.88;100.00
48636;BME280;34429;52.332;5.614;2023-01-10T06:01:03;101458.75;;;6.60;100.00
48636;BME280;34429;52.332;5.614;2023-01-10T06:03:31;101462.09;;;6.49;100.00
48636;BME280;34429;52.332;5.614;2023-01-10T06:06:00;101455.88;;;6.49;100.00
48636;BME280;34429;52.332;5.614;2023-01-10T06:08:31;101465.59;;;6.36;100.00
48636;BME280;34429;52.332;5.614;2023-01-10T06:11:01;101468.88;;;6.41;100.00
48636;BME280;34429;52.332;5.614;2023-01-10T06:13:29;101478.25;;;6.48;100.00
48636;BME280;34429;52.332;5.614;2023-01-10T06:15:58;101480.78;;;6.35;100.00
48636;BME280;34429;52.332;5.614;2023-01-10T06:18:26;101481.66;;;6.36;100.00
48636;BME280;34429;52.332;5.614;2023-01-10T06:20:54;101490.63;;;6.35;100.00
48636;BME280;34429;52.332;5.614;2023-01-10T06:23:23;101486.44;;;6.45;100.00
48636;BME280;34429;52.332;5.614;2023-01-10T06:25:53;101488.16;;;6.46;100.00
48636;BME280;34429;52.332;5.614;2023-01-10T06:28:22;101489.97;;;6.45;100.00
48636;BME280;34429;52.332;5.614;2023-01-10T06:30:50;101486.13;;;6.35;100.00
48636;BME280;34429;52.332;5.614;2023-01-10T06:33:18;101484.78;;;6.28;100.00
48636;BME280;34429;52.332;5.614;2023-01-10T06:35:47;101492.13;;;6.10;100.00
48636;BME280;34429;52.332;5.614;2023-01-10T06:38:16;101498.44;;;6.23;100.00
48636;BME280;34429;52.332;5.614;2023-01-10T06:40:44;101507.63;;;6.34;100.00
48636;BME280;34429;52.332;5.614;2023-01-10T06:43:15;101512.56;;;6.25;100.00
48636;BME280;34429;52.332;5.614;2023-01-10T06:45:43;101508.19;;;6.24;100.00
48636;BME280;34429;52.332;5.614;2023-01-10T06:48:11;101521.19;;;6.30;100.00
48636;BME280;34429;52.332;5.614;2023-01-10T06:50:43;101528.22;;;6.31;100.00
48636;BME280;34429;52.332;5.614;2023-01-10T06:53:12;101521.56;;;6.39;100.00
48636;BME280;34429;52.332;5.614;2023-01-10T06:55:40;101526.16;;;6.37;100.00
48636;BME280;34429;52.332;5.614;2023-01-10T06:58:08;101528.25;;;6.46;100.00
48636;BME280;34429;52.332;5.614;2023-01-10T07:00:45;101534.41;;;6.48;100.00
48636;BME280;34429;52.332;5.614;2023-01-10T07:03:13;101529.72;;;6.52;100.00
48636;BME280;34429;52.332;5.614;2023-01-10T07:05:41;101536.88;;;6.51;100.00
48636;BME280;34429;52.332;5.614;2023-01-10T07:08:10;101530.22;;;6.58;100.00
48636;BME280;34429;52.332;5.614;2023-01-10T07:10:39;101536.31;;;6.60;100.00
48636;BME280;34429;52.332;5.614;2023-01-10T07:13:08;101542.81;;;6.71;100.00
48636;BME280;34429;52.332;5.614;2023-01-10T07:15:36;101539.75;;;6.77;100.00
48636;BME280;34429;52.332;5.614;2023-01-10T07:18:07;101538.59;;;6.66;100.00
48636;BME280;34429;52.332;5.614;2023-01-10T07:20:36;101548.06;;;6.72;100.00
48636;BME280;34429;52.332;5.614;2023-01-10T07:23:04;101546.53;;;6.68;100.00
48636;BME280;34429;52.332;5.614;2023-01-10T07:25:32;101551.69;;;6.71;100.00
48636;BME280;34429;52.332;5.614;2023-01-10T07:28:00;101552.75;;;6.83;100.00
48636;BME280;34429;52.332;5.614;2023-01-10T07:30:29;101550.19;;;6.96;100.00
48636;BME280;34429;52.332;5.614;2023-01-10T07:32:58;101564.25;;;6.85;100.00
48636;BME280;34429;52.332;5.614;2023-01-10T07:35:31;101573.41;;;6.81;100.00
48636;BME280;34429;52.332;5.614;2023-01-10T07:37:59;101584.50;;;6.89;100.00
48636;BME280;34429;52.332;5.614;2023-01-10T07:40:28;101579.91;;;6.91;100.00
48636;BME280;34429;52.332;5.614;2023-01-10T07:42:57;101588.88;;;6.90;100.00
48636;BME280;34429;52.332;5.614;2023-01-10T07:45:26;101597.19;;;6.86;100.00
48636;BME280;34429;52.332;5.614;2023-01-10T07:47:55;101586.59;;;6.84;100.00
48636;BME280;34429;52.332;5.614;2023-01-10T07:50:24;101592.72;;;6.86;100.00
48636;BME280;34429;52.332;5.614;2023-01-10T07:52:57;101587.38;;;6.86;100.00
48636;BME280;34429;52.332;5.614;2023-01-10T07:55:26;101598.66;;;6.91;100.00
48636;BME280;34429;52.332;5.614;2023-01-10T07:57:54;101592.72;;;7.00;100.00
48636;BME280;34429;52.332;5.614;2023-01-10T08:00:23;101591.66;;;6.89;100.00
48636;BME280;34429;52.332;5.614;2023-01-10T08:02:52;101609.47;;;7.04;100.00
48636;BME280;34429;52.332;5.614;2023-01-10T08:05:22;101609.38;;;7.06;100.00
48636;BME280;34429;52.332;5.614;2023-01-10T08:07:50;101604.84;;;6.92;100.00
48636;BME280;34429;52.332;5.614;2023-01-10T08:10:23;101605.34;;;6.98;100.00
48636;BME280;34429;52.332;5.614;2023-01-10T08:12:51;101608.97;;;6.97;100.00
48636;BME280;34429;52.332;5.614;2023-01-10T08:15:20;101604.22;;;7.03;100.00
48636;BME280;34429;52.332;5.614;2023-01-10T08:17:48;101612.25;;;7.03;100.00
48636;BME280;34429;52.332;5.614;2023-01-10T08:20:16;101614.84;;;7.18;100.00
48636;BME280;34429;52.332;5.614;2023-01-10T08:22:45;101608.13;;;7.11;100.00
48636;BME280;34429;52.332;5.614;2023-01-10T08:25:13;101613.19;;;7.01;100.00
48636;BME280;34429;52.332;5.614;2023-01-10T08:27:44;101611.09;;;6.92;100.00
48636;BME280;34429;52.332;5.614;2023-01-10T08:30:13;101621.81;;;7.07;100.00
48636;BME280;34429;52.332;5.614;2023-01-10T08:32:43;101606.91;;;7.17;100.00
48636;BME280;34429;52.332;5.614;2023-01-10T08:35:12;101613.50;;;7.11;100.00
48636;BME280;34429;52.332;5.614;2023-01-10T08:37:43;101605.91;;;7.04;100.00
48636;BME280;34429;52.332;5.614;2023-01-10T08:40:12;101606.09;;;7.00;100.00
48636;BME280;34429;52.332;5.614;2023-01-10T08:42:40;101599.91;;;7.00;100.00
48636;BME280;34429;52.332;5.614;2023-01-10T08:45:11;101605.06;;;7.03;100.00
48636;BME280;34429;52.332;5.614;2023-01-10T08:47:39;101598.09;;;7.15;100.00
48636;BME280;34429;52.332;5.614;2023-01-10T08:50:09;101599.13;;;7.12;100.00
48636;BME280;34429;52.332;5.614;2023-01-10T08:52:37;101600.94;;;6.97;100.00
48636;BME280;34429;52.332;5.614;2023-01-10T08:55:06;101601.03;;;6.96;100.00
48636;BME280;34429;52.332;5.614;2023-01-10T08:57:35;101596.44;;;7.12;100.00
48636;BME280;34429;52.332;5.614;2023-01-10T09:00:05;101604.38;;;6.85;100.00
48636;BME280;34429;52.332;5.614;2023-01-10T09:02:38;101602.38;;;7.17;100.00
48636;BME280;34429;52.332;5.614;2023-01-10T09:05:13;101605.69;;;6.78;100.00
48636;BME280;34429;52.332;5.614;2023-01-10T09:07:41;101608.28;;;6.79;100.00
48636;BME280;34429;52.332;5.614;2023-01-10T09:10:10;101608.00;;;6.84;100.00
48636;BME280;34429;52.332;5.614;2023-01-10T09:12:45;101601.91;;;6.82;100.00
48636;BME280;34429;52.332;5.614;2023-01-10T09:15:31;101600.53;;;6.75;100.00
48636;BME280;34429;52.332;5.614;2023-01-10T09:18:04;101611.72;;;6.81;100.00
48636;BME280;34429;52.332;5.614;2023-01-10T09:20:34;101604.94;;;6.90;100.00
48636;BME280;34429;52.332;5.614;2023-01-10T09:23:06;101597.19;;;6.86;100.00
48636;BME280;34429;52.332;5.614;2023-01-10T09:25:36;101614.78;;;6.75;100.00
48636;BME280;34429;52.332;5.614;2023-01-10T09:28:07;101616.03;;;6.84;100.00
48636;BME280;34429;52.332;5.614;2023-01-10T09:30:36;101613.84;;;6.91;100.00
48636;BME280;34429;52.332;5.614;2023-01-10T09:33:07;101613.75;;;6.92;100.00
48636;BME280;34429;52.332;5.614;2023-01-10T09:35:37;101616.78;;;6.72;100.00
48636;BME280;34429;52.332;5.614;2023-01-10T09:38:10;101617.63;;;6.72;100.00
48636;BME280;34429;52.332;5.614;2023-01-10T09:40:56;101618.31;;;6.76;100.00
48636;BME280;34429;52.332;5.614;2023-01-10T09:43:36;101620.25;;;6.58;100.00
48636;BME280;34429;52.332;5.614;2023-01-10T09:46:11;101608.66;;;6.73;100.00
48636;BME280;34429;52.332;5.614;2023-01-10T09:48:49;101607.44;;;6.79;100.00
48636;BME280;34429;52.332;5.614;2023-01-10T09:51:33;101610.69;;;6.84;100.00
48636;BME280;34429;52.332;5.614;2023-01-10T09:54:05;101601.38;;;6.75;100.00
48636;BME280;34429;52.332;5.614;2023-01-10T09:56:38;101599.50;;;6.77;100.00
48636;BME280;34429;52.332;5.614;2023-01-10T09:59:11;101599.59;;;6.90;100.00
48636;BME280;34429;52.332;5.614;2023-01-10T10:01:50;101592.13;;;6.81;100.00
48636;BME280;34429;52.332;5.614;2023-01-10T10:04:27;101606.00;;;6.88;100.00
48636;BME280;34429;52.332;5.614;2023-01-10T10:06:57;101607.06;;;6.85;100.00
48636;BME280;34429;52.332;5.614;2023-01-10T10:09:28;101604.19;;;6.88;100.00
48636;BME280;34429;52.332;5.614;2023-01-10T10:12:07;101597.09;;;6.87;100.00
48636;BME280;34429;52.332;5.614;2023-01-10T10:14:50;101591.97;;;6.98;100.00
48636;BME280;34429;52.332;5.614;2023-01-10T10:17:33;101591.56;;;6.90;100.00
48636;BME280;34429;52.332;5.614;2023-01-10T10:20:26;101583.94;;;6.98;100.00
48636;BME280;34429;52.332;5.614;2023-01-10T10:23:10;101591.56;;;7.05;100.00
48636;BME280;34429;52.332;5.614;2023-01-10T10:25:59;101587.75;;;6.94;100.00
48636;BME280;34429;52.332;5.614;2023-01-10T10:28:48;101585.84;;;6.82;100.00
48636;BME280;34429;52.332;5.614;2023-01-10T10:31:27;101572.84;;;6.90;100.00
48636;BME280;34429;52.332;5.614;2023-01-10T10:34:07;101578.38;;;7.01;100.00
48636;BME280;34429;52.332;5.614;2023-01-10T10:36:46;101571.91;;;7.06;100.00
48636;BME280;34429;52.332;5.614;2023-01-10T10:39:18;101572.47;;;6.96;100.00
48636;BME280;34429;52.332;5.614;2023-01-10T10:41:50;101569.03;;;6.94;100.00
48636;BME280;34429;52.332;5.614;2023-01-10T10:44:36;101565.84;;;7.02;100.00
48636;BME280;34429;52.332;5.614;2023-01-10T10:47:12;101565.00;;;6.87;100.00
48636;BME280;34429;52.332;5.614;2023-01-10T10:49:45;101565.00;;;7.01;100.00
48636;BME280;34429;52.332;5.614;2023-01-10T10:52:22;101564.50;;;6.95;100.00
48636;BME280;34429;52.332;5.614;2023-01-10T10:54:52;101556.97;;;6.87;100.00
48636;BME280;34429;52.332;5.614;2023-01-10T10:57:23;101554.69;;;6.95;100.00
48636;BME280;34429;52.332;5.614;2023-01-10T10:59:53;101552.50;;;6.88;100.00
48636;BME280;34429;52.332;5.614;2023-01-10T11:02:24;101553.34;;;6.74;100.00
48636;BME280;34429;52.332;5.614;2023-01-10T11:04:56;101550.66;;;6.88;100.00
48636;BME280;34429;52.332;5.614;2023-01-10T11:07:30;101553.06;;;6.93;100.00
48636;BME280;34429;52.332;5.614;2023-01-10T11:10:01;101539.19;;;7.00;100.00
48636;BME280;34429;52.332;5.614;2023-01-10T11:12:40;101538.72;;;6.79;100.00
48636;BME280;34429;52.332;5.614;2023-01-10T11:15:33;101514.44;;;6.82;100.00
48636;BME280;34429;52.332;5.614;2023-01-10T11:18:04;101527.91;;;6.81;100.00
48636;BME280;34429;52.332;5.614;2023-01-10T11:20:33;101525.13;;;6.68;100.00
48636;BME280;34429;52.332;5.614;2023-01-10T11:23:04;101526.38;;;6.62;100.00
48636;BME280;34429;52.332;5.614;2023-01-10T11:25:34;101526.03;;;6.69;100.00
48636;BME280;34429;52.332;5.614;2023-01-10T11:28:02;101526.97;;;6.68;100.00
48636;BME280;34429;52.332;5.614;2023-01-10T11:30:32;101525.53;;;6.76;100.00
48636;BME280;34429;52.332;5.614;2023-01-10T11:33:02;101525.84;;;6.86;100.00
48636;BME280;34429;52.332;5.614;2023-01-10T11:35:33;101508.81;;;6.87;100.00
48636;BME280;34429;52.332;5.614;2023-01-10T11:38:18;101509.00;;;6.70;100.00
48636;BME280;34429;52.332;5.614;2023-01-10T11:40:52;101518.56;;;6.74;100.00
48636;BME280;34429;52.332;5.614;2023-01-10T11:43:25;101520.06;;;6.63;100.00
48636;BME280;34429;52.332;5.614;2023-01-10T11:45:55;101518.84;;;6.69;100.00
48636;BME280;34429;52.332;5.614;2023-01-10T11:48:33;101510.34;;;6.91;100.00
48636;BME280;34429;52.332;5.614;2023-01-10T11:51:15;101513.19;;;6.74;100.00
48636;BME280;34429;52.332;5.614;2023-01-10T11:53:48;101512.16;;;6.76;100.00
48636;BME280;34429;52.332;5.614;2023-01-10T11:56:24;101518.56;;;6.74;100.00
48636;BME280;34429;52.332;5.614;2023-01-10T11:58:55;101507.47;;;6.80;100.00
48636;BME280;34429;52.332;5.614;2023-01-10T12:01:27;101493.72;;;6.72;100.00
48636;BME280;34429;52.332;5.614;2023-01-10T12:03:56;101502.09;;;6.80;100.00
48636;BME280;34429;52.332;5.614;2023-01-10T12:06:26;101494.56;;;6.87;100.00
48636;BME280;34429;52.332;5.614;2023-01-10T12:08:57;101483.97;;;6.85;100.00
48636;BME280;34429;52.332;5.614;2023-01-10T12:11:28;101486.25;;;6.77;100.00
48636;BME280;34429;52.332;5.614;2023-01-10T12:13:59;101474.81;;;6.75;100.00
48636;BME280;34429;52.332;5.614;2023-01-10T12:16:29;101463.72;;;6.81;100.00
48636;BME280;34429;52.332;5.614;2023-01-10T12:18:59;101455.69;;;6.81;100.00
48636;BME280;34429;52.332;5.614;2023-01-10T12:21:36;101458.66;;;6.91;100.00
48636;BME280;34429;52.332;5.614;2023-01-10T12:24:14;101450.13;;;6.84;100.00
48636;BME280;34429;52.332;5.614;2023-01-10T12:26:45;101445.25;;;6.91;100.00
48636;BME280;34429;52.332;5.614;2023-01-10T12:29:18;101437.91;;;6.80;100.00
48636;BME280;34429;52.332;5.614;2023-01-10T12:31:48;101425.94;;;7.00;100.00
48636;BME280;34429;52.332;5.614;2023-01-10T12:34:19;101429.63;;;7.12;100.00
48636;BME280;34429;52.332;5.614;2023-01-10T12:36:57;101417.50;;;7.06;100.00
48636;BME280;34429;52.332;5.614;2023-01-10T12:39:31;101419.03;;;7.10;100.00
48636;BME280;34429;52.332;5.614;2023-01-10T12:42:13;101413.78;;;7.09;100.00
48636;BME280;34429;52.332;5.614;2023-01-10T12:45:00;101406.34;;;6.99;100.00
48636;BME280;34429;52.332;5.614;2023-01-10T12:47:36;101405.53;;;7.12;100.00
48636;BME280;34429;52.332;5.614;2023-01-10T12:50:12;101406.28;;;7.14;100.00
48636;BME280;34429;52.332;5.614;2023-01-10T12:52:47;101408.31;;;7.10;100.00
48636;BME280;34429;52.332;5.614;2023-01-10T12:55:25;101402.31;;;7.34;100.00
48636;BME280;34429;52.332;5.614;2023-01-10T12:57:57;101395.94;;;7.22;100.00
48636;BME280;34429;52.332;5.614;2023-01-10T13:00:29;101395.19;;;7.20;100.00
48636;BME280;34429;52.332;5.614;2023-01-10T13:02:59;101390.59;;;7.22;100.00
48636;BME280;34429;52.332;5.614;2023-01-10T13:05:30;101381.59;;;7.23;100.00
48636;BME280;34429;52.332;5.614;2023-01-10T13:08:02;101388.41;;;7.42;100.00
48636;BME280;34429;52.332;5.614;2023-01-10T13:10:38;101381.84;;;7.33;100.00
48636;BME280;34429;52.332;5.614;2023-01-10T13:13:14;101368.00;;;7.26;100.00
48636;BME280;34429;52.332;5.614;2023-01-10T13:15:48;101367.25;;;7.24;100.00
48636;BME280;34429;52.332;5.614;2023-01-10T13:18:23;101364.28;;;7.29;100.00
48636;BME280;34429;52.332;5.614;2023-01-10T13:21:03;101354.41;;;7.29;100.00